Time;durP1;ratioP1;P1;durP2;ratioP2;P2;SDS_P1;SDS_P2;PMS_P1;PMS_P2;Temp;Humidity;BMP_temperature;BMP_pressure;BME280_temperature;BME280_humidity;BME280_pressure;Samples;Min_cycle;Max_cycle;Signal;HPM_P1;HPM_P2
2023/05/07 00:02:10;;;;;;;5.05;4.55;;;15.10;99.90;;;;;;4993651;28;20511;-70
2023/05/07 00:04:38;;;;;;;5.03;4.00;;;15.10;99.90;;;;;;4992157;28;20053;-68
2023/05/07 00:07:06;;;;;;;6.18;4.45;;;15.10;99.90;;;;;;4991093;28;20368;-70
2023/05/07 00:09:35;;;;;;;5.03;4.00;;;15.20;99.90;;;;;;5007958;28;20052;-70
2023/05/07 00:12:03;;;;;;;5.90;4.38;;;15.20;99.90;;;;;;4983360;28;20050;-69
2023/05/07 00:14:31;;;;;;;4.50;4.10;;;15.10;99.90;;;;;;4993278;28;20047;-67
2023/05/07 00:16:58;;;;;;;6.95;4.40;;;15.10;99.90;;;;;;4985688;28;20451;-68
2023/05/07 00:19:25;;;;;;;6.15;4.57;;;15.20;99.90;;;;;;4991399;28;20105;-71
2023/05/07 00:21:56;;;;;;;5.60;4.32;;;15.20;99.90;;;;;;4992143;28;20060;-69
2023/05/07 00:24:24;;;;;;;5.73;4.27;;;15.20;99.90;;;;;;4992006;28;20062;-70
2023/05/07 00:26:52;;;;;;;5.53;4.10;;;15.20;99.90;;;;;;4991800;28;20053;-69
2023/05/07 00:29:19;;;;;;;5.10;4.30;;;15.20;99.90;;;;;;4991844;28;20054;-71
2023/05/07 00:31:49;;;;;;;5.07;4.18;;;15.20;99.90;;;;;;4992159;28;20421;-70
2023/05/07 00:34:17;;;;;;;6.05;4.68;;;15.20;99.90;;;;;;4992000;28;20463;-69
2023/05/07 00:36:44;;;;;;;7.60;4.30;;;15.20;99.90;;;;;;4996677;28;20050;-70
2023/05/07 00:39:12;;;;;;;6.25;4.10;;;15.20;99.90;;;;;;4983659;28;20030;-71
2023/05/07 00:41:39;;;;;;;4.95;4.22;;;15.20;99.90;;;;;;4995850;28;20069;-70
2023/05/07 00:44:06;;;;;;;5.97;4.28;;;15.20;99.90;;;;;;4971590;28;20061;-70
2023/05/07 00:46:34;;;;;;;5.85;4.20;;;15.20;99.90;;;;;;5007648;28;20050;-69
2023/05/07 00:49:02;;;;;;;5.85;4.43;;;15.20;99.90;;;;;;4991538;28;20039;-69
2023/05/07 00:51:29;;;;;;;4.88;3.80;;;15.20;99.90;;;;;;4991836;28;20042;-70
2023/05/07 00:53:57;;;;;;;6.85;4.50;;;15.20;99.90;;;;;;4975493;28;20050;-70
2023/05/07 00:56:25;;;;;;;6.47;4.00;;;15.20;99.90;;;;;;4975352;28;20061;-71
2023/05/07 00:58:52;;;;;;;5.53;4.10;;;15.20;99.90;;;;;;4989739;28;20049;-69
2023/05/07 01:01:20;;;;;;;7.05;4.30;;;15.20;99.90;;;;;;4998568;28;20037;-69
2023/05/07 01:03:47;;;;;;;6.32;3.97;;;15.10;99.90;;;;;;4989009;28;20517;-69
2023/05/07 01:06:16;;;;;;;5.40;4.32;;;15.20;99.90;;;;;;4990640;28;20042;-71
2023/05/07 01:08:45;;;;;;;5.32;4.18;;;15.20;99.90;;;;;;4992314;28;20042;-70
2023/05/07 01:11:13;;;;;;;5.53;4.65;;;15.20;99.90;;;;;;4957432;28;20050;-70
2023/05/07 01:13:42;;;;;;;4.70;4.10;;;15.10;99.90;;;;;;4974762;28;20426;-69
2023/05/07 01:16:09;;;;;;;5.05;4.40;;;15.10;99.90;;;;;;4990414;28;20060;-70
2023/05/07 01:18:37;;;;;;;6.60;4.70;;;15.10;99.90;;;;;;4982768;28;20053;-73
2023/05/07 01:21:07;;;;;;;5.97;4.15;;;15.00;99.90;;;;;;4979367;28;20042;-68
2023/05/07 01:23:35;;;;;;;5.95;4.80;;;15.00;99.90;;;;;;4989850;28;20057;-69
2023/05/07 01:26:02;;;;;;;6.55;4.57;;;14.90;99.90;;;;;;4987757;28;20038;-69
2023/05/07 01:28:32;;;;;;;5.05;4.55;;;15.00;99.90;;;;;;4974205;28;20046;-71
2023/05/07 01:31:03;;;;;;;7.88;4.50;;;14.90;99.90;;;;;;4992949;28;20137;-71
2023/05/07 01:33:34;;;;;;;5.57;4.50;;;14.90;99.90;;;;;;4973808;28;20133;-72
2023/05/07 01:36:06;;;;;;;6.65;4.88;;;15.00;99.90;;;;;;4992129;28;20121;-71
2023/05/07 01:38:35;;;;;;;5.85;4.60;;;14.90;99.90;;;;;;4968809;28;20549;-72
2023/05/07 01:41:03;;;;;;;6.45;4.53;;;14.90;99.90;;;;;;4990165;28;20038;-69
2023/05/07 01:43:30;;;;;;;5.20;4.70;;;14.90;99.90;;;;;;4990154;28;20114;-69
2023/05/07 01:46:00;;;;;;;6.63;5.07;;;14.90;99.90;;;;;;4989489;28;20054;-70
2023/05/07 01:48:28;;;;;;;7.60;5.40;;;14.80;99.90;;;;;;4997098;28;20038;-68
2023/05/07 01:50:56;;;;;;;7.43;5.18;;;14.90;99.90;;;;;;4996374;28;20217;-68
2023/05/07 01:53:23;;;;;;;6.80;5.18;;;14.80;99.90;;;;;;4989901;28;20046;-68
2023/05/07 01:55:51;;;;;;;5.90;4.78;;;14.80;99.90;;;;;;4988248;28;20142;-70
2023/05/07 01:58:20;;;;;;;7.22;5.20;;;14.70;99.90;;;;;;4969997;28;20150;-71
2023/05/07 02:00:48;;;;;;;7.32;5.20;;;14.80;99.90;;;;;;5009885;28;20069;-70
2023/05/07 02:03:15;;;;;;;5.95;5.30;;;14.70;99.90;;;;;;4990346;28;20038;-69
2023/05/07 02:05:55;;;;;;;6.85;5.03;;;14.70;99.90;;;;;;4988499;28;20522;-69
2023/05/07 02:08:30;;;;;;;5.75;5.10;;;14.70;99.90;;;;;;4985036;28;20499;-69
2023/05/07 02:10:58;;;;;;;5.93;5.22;;;14.70;99.90;;;;;;4994647;28;20038;-69
2023/05/07 02:13:31;;;;;;;6.00;5.15;;;14.70;99.90;;;;;;5000604;28;20191;-69
2023/05/07 02:15:59;;;;;;;8.88;5.55;;;14.60;99.90;;;;;;4992866;28;20038;-70
2023/05/07 02:18:27;;;;;;;6.10;5.35;;;14.60;99.90;;;;;;4975019;28;20042;-68
2023/05/07 02:20:55;;;;;;;6.85;5.68;;;14.50;99.90;;;;;;4991529;28;20121;-71
2023/05/07 02:23:22;;;;;;;7.22;5.30;;;14.50;99.90;;;;;;4972890;28;20046;-70
2023/05/07 02:25:51;;;;;;;9.82;5.88;;;14.50;99.90;;;;;;4996630;28;20038;-71
2023/05/07 02:28:19;;;;;;;7.45;5.43;;;14.40;99.90;;;;;;4977969;28;20077;-70
2023/05/07 02:30:53;;;;;;;6.75;5.97;;;14.40;99.90;;;;;;5008353;28;20261;-69
2023/05/07 02:33:21;;;;;;;7.88;5.63;;;14.30;99.90;;;;;;4976590;28;20294;-71
2023/05/07 02:35:48;;;;;;;7.43;6.05;;;14.30;99.90;;;;;;4990928;28;20043;-69
2023/05/07 02:38:15;;;;;;;7.47;5.65;;;14.20;99.90;;;;;;4998190;28;20434;-70
2023/05/07 02:40:44;;;;;;;6.65;5.75;;;14.10;99.90;;;;;;4969787;28;20074;-70
2023/05/07 02:43:11;;;;;;;8.00;5.97;;;14.10;99.90;;;;;;4990009;28;20114;-69
2023/05/07 02:45:43;;;;;;;6.87;6.17;;;14.00;99.90;;;;;;4997486;28;20046;-69
2023/05/07 02:48:11;;;;;;;7.28;5.97;;;14.00;99.90;;;;;;4980532;28;20385;-70
2023/05/07 02:50:38;;;;;;;7.43;5.72;;;13.90;99.90;;;;;;5002822;28;20045;-71
2023/05/07 02:53:06;;;;;;;7.10;6.03;;;13.90;99.90;;;;;;4975344;28;20053;-71
2023/05/07 02:55:34;;;;;;;9.15;6.45;;;13.80;99.90;;;;;;4989111;28;20465;-71
2023/05/07 02:58:01;;;;;;;7.38;6.50;;;13.70;99.90;;;;;;4989407;28;20031;-69
2023/05/07 03:00:32;;;;;;;8.23;6.40;;;13.70;99.90;;;;;;4971757;28;20061;-70
2023/05/07 03:03:12;;;;;;;11.30;7.05;;;13.60;99.90;;;;;;4975320;28;20493;-68
2023/05/07 03:05:40;;;;;;;8.43;6.93;;;13.60;99.90;;;;;;4996462;28;20073;-69
2023/05/07 03:08:08;;;;;;;6.78;6.05;;;13.60;99.90;;;;;;4990675;28;20043;-72
2023/05/07 03:10:37;;;;;;;9.00;7.43;;;13.60;99.90;;;;;;4990166;28;20030;-68
2023/05/07 03:13:05;;;;;;;11.07;7.18;;;13.50;99.90;;;;;;4982915;28;20056;-69
2023/05/07 03:15:32;;;;;;;7.68;6.70;;;13.50;99.90;;;;;;4998948;28;20046;-69
2023/05/07 03:18:00;;;;;;;8.32;6.50;;;13.50;99.90;;;;;;4996643;28;20045;-69
2023/05/07 03:20:27;;;;;;;8.90;7.10;;;13.40;99.90;;;;;;4996004;28;20497;-69
2023/05/07 03:22:55;;;;;;;10.52;7.25;;;13.40;99.90;;;;;;4994768;28;20034;-74
2023/05/07 03:25:22;;;;;;;11.02;7.88;;;13.40;99.90;;;;;;4984464;28;20046;-70
2023/05/07 03:27:50;;;;;;;7.47;6.70;;;13.30;99.90;;;;;;4990842;28;20425;-71
2023/05/07 03:30:20;;;;;;;9.30;7.25;;;13.30;99.90;;;;;;4961761;28;20042;-70
2023/05/07 03:32:48;;;;;;;11.23;7.18;;;13.20;99.90;;;;;;4994194;28;20556;-70
2023/05/07 03:35:15;;;;;;;8.55;7.55;;;13.20;99.90;;;;;;4997475;28;20042;-70
2023/05/07 03:37:42;;;;;;;11.18;7.47;;;13.20;99.90;;;;;;4994581;28;20042;-70
2023/05/07 03:40:12;;;;;;;8.75;6.97;;;13.20;99.90;;;;;;4991537;28;20042;-70
2023/05/07 03:42:50;;;;;;;12.50;7.82;;;13.20;99.90;;;;;;4980121;28;20237;-69
2023/05/07 03:45:20;;;;;;;9.02;7.88;;;13.20;99.90;;;;;;4989496;28;20042;-69
2023/05/07 03:47:56;;;;;;;9.25;7.63;;;13.20;99.90;;;;;;4979197;28;20050;-70
2023/05/07 03:50:24;;;;;;;12.38;7.85;;;13.20;99.90;;;;;;4965720;28;20145;-70
2023/05/07 03:52:51;;;;;;;9.07;7.78;;;13.20;99.90;;;;;;4998661;28;20046;-69
2023/05/07 03:55:22;;;;;;;9.55;8.05;;;13.20;99.90;;;;;;4986468;28;20062;-71
2023/05/07 03:57:54;;;;;;;9.65;7.43;;;13.20;99.90;;;;;;4976726;28;20042;-69
2023/05/07 04:00:22;;;;;;;10.00;7.40;;;13.20;99.90;;;;;;4993904;28;20130;-69
2023/05/07 04:02:50;;;;;;;9.70;7.50;;;13.20;99.90;;;;;;4994460;28;20049;-69
2023/05/07 04:05:26;;;;;;;8.90;7.72;;;13.20;99.90;;;;;;5001195;28;20057;-71
2023/05/07 04:07:58;;;;;;;;;;;13.30;99.90;;;;;;4992637;28;20050;-69
2023/05/07 04:10:32;;;;;;;10.30;7.75;;;13.20;99.90;;;;;;4975570;28;19922;-72
2023/05/07 04:13:03;;;;;;;8.90;7.67;;;13.20;99.90;;;;;;4970008;28;20069;-69
2023/05/07 04:15:31;;;;;;;11.27;7.85;;;13.30;99.90;;;;;;4989875;28;20042;-70
2023/05/07 04:17:59;;;;;;;9.27;7.35;;;13.30;99.90;;;;;;5000513;28;20038;-69
2023/05/07 04:20:27;;;;;;;10.35;7.60;;;13.40;99.90;;;;;;5006332;28;20030;-69
2023/05/07 04:23:00;;;;;;;9.15;7.38;;;13.40;99.90;;;;;;4975732;28;20052;-70
2023/05/07 04:25:28;;;;;;;12.77;8.27;;;13.40;99.90;;;;;;4969619;28;20038;-69
2023/05/07 04:28:02;;;;;;;10.57;8.48;;;13.40;99.90;;;;;;4989044;28;20112;-68
2023/05/07 04:30:32;;;;;;;9.10;7.88;;;13.50;99.90;;;;;;4990054;28;20364;-69
2023/05/07 04:32:59;;;;;;;10.45;8.25;;;13.60;99.90;;;;;;4974749;28;20054;-70
2023/05/07 04:35:29;;;;;;;9.32;7.60;;;13.60;99.90;;;;;;4992405;28;20039;-69
2023/05/07 04:37:57;;;;;;;11.02;8.38;;;13.70;99.90;;;;;;4991292;28;20038;-70
2023/05/07 04:40:25;;;;;;;11.13;8.30;;;13.70;99.90;;;;;;4989544;28;20391;-70
2023/05/07 04:42:55;;;;;;;12.43;7.93;;;13.80;99.90;;;;;;4990735;28;20050;-69
2023/05/07 04:45:22;;;;;;;10.13;8.23;;;14.00;99.90;;;;;;4990270;28;20042;-71
2023/05/07 04:47:52;;;;;;;11.10;8.20;;;14.00;99.90;;;;;;4993704;28;20042;-71
2023/05/07 04:50:20;;;;;;;11.27;8.20;;;14.00;99.90;;;;;;4998335;28;20105;-71
2023/05/07 04:52:48;;;;;;;8.70;7.57;;;14.20;99.90;;;;;;4992601;28;20042;-68
2023/05/07 04:55:16;;;;;;;10.48;8.25;;;14.30;99.90;;;;;;4994999;28;20505;-70
2023/05/07 04:57:44;;;;;;;11.00;8.20;;;14.40;99.90;;;;;;4991840;28;20042;-70
2023/05/07 05:00:14;;;;;;;9.57;8.18;;;14.50;99.90;;;;;;4987811;28;20099;-69
2023/05/07 05:02:44;;;;;;;9.43;7.78;;;14.50;99.90;;;;;;5016092;28;20469;-72
2023/05/07 05:05:16;;;;;;;9.52;8.27;;;14.70;99.90;;;;;;5000473;28;20505;-74
2023/05/07 05:07:44;;;;;;;10.85;8.50;;;14.70;99.90;;;;;;4981575;28;20058;-70
2023/05/07 05:10:11;;;;;;;14.27;8.75;;;14.80;99.90;;;;;;5000317;28;20145;-70
2023/05/07 05:12:40;;;;;;;10.68;8.35;;;14.90;99.90;;;;;;4993182;28;20035;-69
2023/05/07 05:15:12;;;;;;;12.45;9.02;;;15.10;99.90;;;;;;4999788;28;20390;-69
2023/05/07 05:17:39;;;;;;;10.90;9.68;;;15.10;99.90;;;;;;4991794;28;20082;-69
2023/05/07 05:20:09;;;;;;;11.13;8.77;;;15.30;99.90;;;;;;5000882;28;20093;-69
2023/05/07 05:22:38;;;;;;;10.10;8.60;;;15.40;99.90;;;;;;4973538;28;20417;-69
2023/05/07 05:25:06;;;;;;;9.90;8.30;;;15.50;99.90;;;;;;4991491;28;20046;-71
2023/05/07 05:27:35;;;;;;;9.32;8.25;;;15.60;99.90;;;;;;4974705;28;20054;-70
2023/05/07 05:30:03;;;;;;;10.65;8.55;;;15.60;99.90;;;;;;4995923;28;20157;-70
2023/05/07 05:32:31;;;;;;;9.80;8.63;;;15.70;99.90;;;;;;4998040;28;20129;-70
2023/05/07 05:35:01;;;;;;;12.20;9.55;;;15.80;99.90;;;;;;4973722;28;20138;-70
2023/05/07 05:37:31;;;;;;;9.77;8.48;;;15.70;99.90;;;;;;4988662;28;20427;-70
2023/05/07 05:40:00;;;;;;;9.85;8.27;;;15.70;99.90;;;;;;4991857;28;20039;-69
2023/05/07 05:42:29;;;;;;;11.85;8.32;;;15.70;99.90;;;;;;4997227;28;20421;-71
2023/05/07 05:44:57;;;;;;;12.90;8.75;;;15.70;99.90;;;;;;4997946;28;20126;-70
2023/05/07 05:47:24;;;;;;;10.95;9.10;;;15.60;99.90;;;;;;4983559;28;20450;-70
2023/05/07 05:49:54;;;;;;;10.25;8.77;;;15.70;99.90;;;;;;4985514;28;20042;-69
2023/05/07 05:52:23;;;;;;;9.63;8.63;;;15.80;99.90;;;;;;4988149;28;20034;-69
2023/05/07 05:54:51;;;;;;;12.10;9.55;;;15.90;99.90;;;;;;4972296;28;20046;-72
2023/05/07 05:57:19;;;;;;;12.50;9.77;;;16.00;99.90;;;;;;4971535;28;20042;-69
2023/05/07 05:59:47;;;;;;;10.77;9.30;;;16.00;99.90;;;;;;4977653;28;20439;-69
2023/05/07 06:02:14;;;;;;;12.88;9.75;;;16.10;99.90;;;;;;4971162;28;20039;-71
2023/05/07 06:04:42;;;;;;;10.25;8.90;;;16.10;99.90;;;;;;4960517;28;20061;-71
2023/05/07 06:07:15;;;;;;;12.88;9.57;;;16.10;99.90;;;;;;4956522;28;20046;-72
2023/05/07 06:09:42;;;;;;;11.60;9.57;;;16.20;99.90;;;;;;4989797;28;20050;-69
2023/05/07 06:12:09;;;;;;;15.32;11.23;;;16.20;99.90;;;;;;4980509;28;20522;-74
2023/05/07 06:14:37;;;;;;;18.38;10.75;;;16.40;99.90;;;;;;4990379;28;20080;-71
2023/05/07 06:17:05;;;;;;;10.95;9.05;;;16.50;99.90;;;;;;4990402;28;20113;-70
2023/05/07 06:19:32;;;;;;;11.88;8.95;;;16.70;99.90;;;;;;4974644;28;20109;-69
2023/05/07 06:22:01;;;;;;;12.77;9.35;;;16.80;99.90;;;;;;4991177;28;20069;-69
2023/05/07 06:24:30;;;;;;;12.18;9.52;;;16.80;99.90;;;;;;4974079;28;20042;-69
2023/05/07 06:26:58;;;;;;;10.90;8.90;;;16.80;99.90;;;;;;4989252;28;20129;-68
2023/05/07 06:29:27;;;;;;;11.13;9.13;;;16.90;99.90;;;;;;4973785;28;20042;-71
2023/05/07 06:31:55;;;;;;;9.90;8.85;;;17.10;99.90;;;;;;4973358;28;20046;-71
2023/05/07 06:34:23;;;;;;;11.13;9.27;;;17.30;99.90;;;;;;4967369;28;20037;-70
2023/05/07 06:36:50;;;;;;;11.40;8.73;;;17.50;99.90;;;;;;4972206;28;20081;-70
2023/05/07 06:39:33;;;;;;;8.98;8.05;;;17.60;99.90;;;;;;4982182;28;20414;-70
2023/05/07 06:42:02;;;;;;;9.88;8.23;;;17.80;99.90;;;;;;4973489;28;20118;-70
2023/05/07 06:44:31;;;;;;;11.05;9.23;;;17.80;99.90;;;;;;4989968;28;20030;-70
2023/05/07 06:47:07;;;;;;;10.82;9.30;;;17.80;99.90;;;;;;4982443;28;20064;-71
2023/05/07 06:49:37;;;;;;;10.75;8.63;;;17.60;99.90;;;;;;4975008;28;20096;-71
2023/05/07 06:52:05;;;;;;;10.85;9.02;;;17.80;99.90;;;;;;5007338;28;20093;-70
2023/05/07 06:54:33;;;;;;;13.52;9.90;;;18.00;99.90;;;;;;4990156;28;20042;-70
2023/05/07 06:57:00;;;;;;;9.98;8.80;;;18.10;99.90;;;;;;4973427;28;20133;-70
2023/05/07 06:59:29;;;;;;;10.60;9.43;;;18.20;99.90;;;;;;4989256;28;20038;-71
2023/05/07 07:01:56;;;;;;;13.52;10.98;;;18.40;99.90;;;;;;4990889;28;20418;-70
2023/05/07 07:04:25;;;;;;;12.90;9.40;;;18.40;99.90;;;;;;4994051;28;20113;-70
2023/05/07 07:07:00;;;;;;;10.57;9.48;;;18.60;99.90;;;;;;4993351;28;20057;-70
2023/05/07 07:09:28;;;;;;;12.05;10.50;;;18.70;99.90;;;;;;4974340;28;20046;-69
2023/05/07 07:11:57;;;;;;;12.20;9.48;;;18.60;99.90;;;;;;4992325;28;20505;-70
2023/05/07 07:14:24;;;;;;;12.82;9.60;;;18.70;99.90;;;;;;4982077;28;20493;-69
2023/05/07 07:16:53;;;;;;;10.13;9.13;;;18.90;99.90;;;;;;4980512;28;20048;-69
2023/05/07 07:19:22;;;;;;;11.00;9.07;;;19.00;99.90;;;;;;4993505;28;20038;-70
2023/05/07 07:21:52;;;;;;;11.75;9.43;;;18.90;99.90;;;;;;4975857;28;20070;-72
2023/05/07 07:24:21;;;;;;;9.82;8.82;;;19.00;99.90;;;;;;4985988;28;20057;-69
2023/05/07 07:26:52;;;;;;;9.38;8.48;;;18.80;99.90;;;;;;4976058;28;20050;-69
2023/05/07 07:29:21;;;;;;;14.20;10.93;;;19.20;99.90;;;;;;4975861;28;20054;-69
2023/05/07 07:31:51;;;;;;;13.60;9.82;;;19.60;99.90;;;;;;4992445;28;20100;-70
2023/05/07 07:34:20;;;;;;;9.97;8.90;;;20.00;99.90;;;;;;4976325;28;20041;-68
2023/05/07 07:36:48;;;;;;;11.40;8.77;;;19.90;99.90;;;;;;4992861;28;20286;-68
2023/05/07 07:39:17;;;;;;;10.15;8.70;;;20.20;99.90;;;;;;4993256;28;20046;-70
2023/05/07 07:41:47;;;;;;;10.70;8.82;;;20.20;99.90;;;;;;4993842;28;20074;-70
2023/05/07 07:44:15;;;;;;;9.80;8.75;;;20.30;99.90;;;;;;4992605;28;20152;-68
2023/05/07 07:46:47;;;;;;;8.88;7.88;;;20.20;99.90;;;;;;4960747;28;20058;-68
2023/05/07 07:49:15;;;;;;;11.15;8.18;;;20.30;99.90;;;;;;4993634;28;20062;-70
2023/05/07 07:51:43;;;;;;;10.70;8.35;;;20.40;99.90;;;;;;5000148;28;20041;-70
2023/05/07 07:54:12;;;;;;;10.52;8.85;;;20.30;99.90;;;;;;4988189;28;20051;-69
2023/05/07 07:56:40;;;;;;;10.40;8.45;;;20.60;99.90;;;;;;4991710;28;20046;-70
2023/05/07 07:59:09;;;;;;;11.32;8.80;;;20.80;99.90;;;;;;5000510;28;20039;-70
2023/05/07 08:01:39;;;;;;;12.13;8.77;;;20.80;99.90;;;;;;4991703;28;20068;-74
2023/05/07 08:04:07;;;;;;;10.70;9.60;;;20.80;99.90;;;;;;4987084;28;20043;-70
2023/05/07 08:06:38;;;;;;;10.33;7.90;;;20.90;99.90;;;;;;4986359;28;20058;-69
2023/05/07 08:09:09;;;;;;;9.07;8.18;;;21.10;99.90;;;;;;4985444;28;20148;-70
2023/05/07 08:11:38;;;;;;;10.77;8.60;;;21.20;99.90;;;;;;4987973;28;20096;-68
2023/05/07 08:14:06;;;;;;;12.13;10.45;;;21.10;99.90;;;;;;4968847;28;20057;-68
2023/05/07 08:16:33;;;;;;;9.30;8.30;;;21.20;99.90;;;;;;4988211;28;20061;-70
2023/05/07 08:19:01;;;;;;;9.55;7.63;;;21.20;99.90;;;;;;4977594;28;20117;-72
2023/05/07 08:21:30;;;;;;;8.95;7.95;;;21.40;99.90;;;;;;4991516;28;20042;-70
2023/05/07 08:24:00;;;;;;;;;;;21.30;99.90;;;;;;4991446;28;20062;-70
2023/05/07 08:26:28;;;;;;;10.40;7.70;;;21.30;99.90;;;;;;4992164;28;20016;-71
2023/05/07 08:28:55;;;;;;;10.55;8.02;;;21.40;99.90;;;;;;4990664;28;20137;-72
2023/05/07 08:31:23;;;;;;;11.45;9.05;;;21.30;99.90;;;;;;4991657;28;20057;-70
2023/05/07 08:33:51;;;;;;;11.65;9.02;;;21.50;99.90;;;;;;4990299;28;20046;-68
2023/05/07 08:36:19;;;;;;;8.77;7.88;;;21.60;99.90;;;;;;4992868;28;20471;-69
2023/05/07 08:38:46;;;;;;;10.93;8.05;;;21.80;99.90;;;;;;4975704;28;20049;-68
2023/05/07 08:41:15;;;;;;;9.75;7.80;;;21.60;99.90;;;;;;4975776;28;20045;-69
2023/05/07 08:43:49;;;;;;;9.38;7.63;;;21.50;99.90;;;;;;4988870;28;20122;-71
2023/05/07 08:46:21;;;;;;;9.32;7.07;;;21.60;99.90;;;;;;4976111;28;20129;-69
2023/05/07 08:48:53;;;;;;;8.90;7.57;;;21.90;99.90;;;;;;5014928;28;20047;-68
2023/05/07 08:51:21;;;;;;;9.57;7.57;;;21.60;99.90;;;;;;4998392;28;20052;-69
2023/05/07 08:53:50;;;;;;;8.43;7.30;;;21.70;99.90;;;;;;5000160;28;20050;-69
2023/05/07 08:56:28;;;;;;;10.02;7.88;;;21.90;99.90;;;;;;4993569;28;20034;-70
2023/05/07 08:58:58;;;;;;;8.85;7.95;;;22.00;99.90;;;;;;5000753;28;20486;-70
2023/05/07 09:01:27;;;;;;;11.10;8.27;;;22.30;99.90;;;;;;4993260;28;20088;-70
2023/05/07 09:03:57;;;;;;;8.95;7.30;;;22.40;99.90;;;;;;4979557;28;20060;-69
2023/05/07 09:06:27;;;;;;;8.80;7.87;;;22.50;99.90;;;;;;5001709;28;20478;-73
2023/05/07 09:08:55;;;;;;;8.73;7.30;;;22.60;99.90;;;;;;4977026;28;20042;-71
2023/05/07 09:11:27;;;;;;;11.15;8.75;;;22.90;99.90;;;;;;4990149;28;20102;-69
2023/05/07 09:14:01;;;;;;;11.57;8.33;;;22.60;99.90;;;;;;4990820;28;20061;-71
2023/05/07 09:16:32;;;;;;;9.02;7.70;;;22.70;99.90;;;;;;4987448;28;20092;-71
2023/05/07 09:19:00;;;;;;;10.73;7.53;;;22.90;99.90;;;;;;4988746;28;20046;-69
2023/05/07 09:21:28;;;;;;;7.35;6.65;;;22.70;99.90;;;;;;4980401;28;20049;-69
2023/05/07 09:23:58;;;;;;;7.68;6.88;;;22.60;99.90;;;;;;4975758;28;20545;-70
2023/05/07 09:26:35;;;;;;;8.70;7.63;;;22.70;99.90;;;;;;4971650;28;20509;-74
2023/05/07 09:29:03;;;;;;;9.63;7.45;;;22.80;99.90;;;;;;4977974;28;20054;-71
2023/05/07 09:31:31;;;;;;;11.80;8.38;;;22.90;99.90;;;;;;4986682;28;20121;-70
2023/05/07 09:33:59;;;;;;;15.18;11.57;;;22.80;99.90;;;;;;4989185;28;20050;-69
2023/05/07 09:36:29;;;;;;;10.90;7.75;;;22.70;99.90;;;;;;4991161;28;20034;-70
2023/05/07 09:39:00;;;;;;;10.13;7.35;;;22.70;99.90;;;;;;4991424;28;20105;-71
2023/05/07 09:41:31;;;;;;;9.77;7.55;;;22.80;99.90;;;;;;4974277;28;20527;-68
2023/05/07 09:44:09;;;;;;;8.45;6.53;;;22.90;99.90;;;;;;4977370;28;20062;-71
2023/05/07 09:46:43;;;;;;;7.97;6.85;;;23.00;99.90;;;;;;4990711;28;20478;-71
2023/05/07 09:49:22;;;;;;;7.53;6.50;;;23.10;99.90;;;;;;4987975;28;20394;-71
2023/05/07 09:51:55;;;;;;;7.60;6.60;;;23.20;99.90;;;;;;5007115;28;20045;-73
2023/05/07 09:54:25;;;;;;;7.63;6.40;;;23.30;99.90;;;;;;4998533;28;20038;-70
2023/05/07 09:56:56;;;;;;;7.40;6.10;;;23.30;99.90;;;;;;4996109;28;20034;-70
2023/05/07 09:59:27;;;;;;;9.38;6.47;;;23.40;99.90;;;;;;4989673;28;20049;-71
2023/05/07 10:01:59;;;;;;;7.70;6.80;;;23.60;99.90;;;;;;4989985;28;20217;-71
2023/05/07 10:04:31;;;;;;;7.68;6.32;;;23.60;99.90;;;;;;4988449;28;20226;-71
2023/05/07 10:07:00;;;;;;;7.40;6.22;;;23.80;99.90;;;;;;4984773;28;20043;-69
2023/05/07 10:09:30;;;;;;;7.03;6.00;;;24.10;99.90;;;;;;4987484;28;20057;-71
2023/05/07 10:11:58;;;;;;;6.93;6.18;;;24.40;99.90;;;;;;4972251;28;20046;-71
2023/05/07 10:14:27;;;;;;;9.52;6.30;;;24.80;99.90;;;;;;4989051;28;20034;-70
2023/05/07 10:16:57;;;;;;;10.13;6.63;;;24.80;99.90;;;;;;4988774;28;20042;-70
2023/05/07 10:19:26;;;;;;;7.88;6.07;;;24.90;99.90;;;;;;4987459;28;20061;-70
2023/05/07 10:22:05;;;;;;;8.07;6.72;;;25.20;99.90;;;;;;4989310;28;20042;-70
2023/05/07 10:24:37;;;;;;;9.57;6.43;;;25.40;99.90;;;;;;4987612;28;20100;-71
2023/05/07 10:27:14;;;;;;;6.97;5.97;;;25.60;99.90;;;;;;4974584;28;20046;-72
2023/05/07 10:30:00;;;;;;;7.45;6.45;;;25.70;99.90;;;;;;4987978;28;20058;-71
2023/05/07 10:32:47;;;;;;;7.18;5.72;;;25.80;99.90;;;;;;5000827;28;20030;-71
2023/05/07 10:35:29;;;;;;;6.30;5.70;;;26.10;99.90;;;;;;4991078;28;20450;-71
2023/05/07 10:37:58;;;;;;;8.27;6.63;;;26.50;99.90;;;;;;4972817;28;20042;-72
2023/05/07 10:40:28;;;;;;;6.78;6.07;;;26.40;99.90;;;;;;4960387;28;20045;-73
2023/05/07 10:43:00;;;;;;;7.13;6.43;;;26.30;99.90;;;;;;4990890;28;20076;-72
2023/05/07 10:45:32;;;;;;;7.10;6.40;;;26.30;99.90;;;;;;4990982;28;20042;-70
2023/05/07 10:48:16;;;;;;;7.35;5.95;;;26.50;99.90;;;;;;4978401;28;20043;-70
2023/05/07 10:51:22;;;;;;;6.32;5.68;;;26.20;99.90;;;;;;4987951;28;20077;-71
2023/05/07 10:54:12;;;;;;;7.03;5.63;;;26.50;99.90;;;;;;4986618;28;20068;-70
2023/05/07 10:56:47;;;;;;;6.45;5.53;;;27.30;99.90;;;;;;4967681;28;20047;-70
2023/05/07 10:59:20;;;;;;;8.07;5.85;;;28.00;99.90;;;;;;4987598;28;20049;-70
2023/05/07 11:01:54;;;;;;;9.57;5.93;;;28.40;99.90;;;;;;4988503;28;20053;-71
2023/05/07 11:05:20;;;;;;;6.50;5.88;;;28.90;99.90;;;;;;4983473;28;20057;-71
2023/05/07 11:08:09;;;;;;;7.18;5.70;;;29.10;99.90;;;;;;4983100;28;20047;-72
2023/05/07 11:10:58;;;;;;;7.50;5.70;;;29.10;99.90;;;;;;4970981;28;20054;-70
2023/05/07 11:13:54;;;;;;;7.00;5.50;;;29.40;99.40;;;;;;4981391;28;20649;-70
2023/05/07 11:16:37;;;;;;;6.97;6.28;;;29.40;98.80;;;;;;4988399;28;20485;-73
2023/05/07 11:19:49;;;;;;;6.30;5.28;;;29.40;97.60;;;;;;4981047;28;20042;-72
2023/05/07 11:22:40;;;;;;;6.35;5.75;;;29.20;97.40;;;;;;4981895;28;20089;-72
2023/05/07 11:25:25;;;;;;;6.38;5.60;;;29.60;97.20;;;;;;4986669;28;20310;-71
2023/05/07 11:28:06;;;;;;;7.13;6.38;;;29.80;96.10;;;;;;4987622;28;20069;-72
2023/05/07 11:30:34;;;;;;;6.70;6.10;;;29.50;95.30;;;;;;4957014;28;20037;-72
2023/05/07 11:33:05;;;;;;;6.82;6.10;;;29.30;96.30;;;;;;4973447;28;20121;-73
2023/05/07 11:35:34;;;;;;;7.15;6.20;;;29.70;95.60;;;;;;4972532;28;20394;-71
2023/05/07 11:38:05;;;;;;;7.85;5.68;;;30.10;94.90;;;;;;4998762;28;20035;-72
2023/05/07 11:40:34;;;;;;;7.57;5.70;;;30.80;93.60;;;;;;4996971;28;20038;-71
2023/05/07 11:43:11;;;;;;;6.43;5.30;;;31.30;92.90;;;;;;4984846;28;20054;-71
2023/05/07 11:45:38;;;;;;;7.38;5.57;;;31.40;91.70;;;;;;4969562;28;20045;-71
2023/05/07 11:48:05;;;;;;;5.90;5.40;;;31.80;90.40;;;;;;4990329;28;20046;-71
2023/05/07 11:50:33;;;;;;;7.50;5.78;;;31.90;88.80;;;;;;4996123;28;20038;-72
2023/05/07 11:53:00;;;;;;;5.75;5.15;;;31.90;87.00;;;;;;4993962;28;20125;-71
2023/05/07 11:55:28;;;;;;;5.97;5.22;;;31.40;86.50;;;;;;4992482;28;20034;-71
2023/05/07 11:57:56;;;;;;;7.78;5.50;;;31.20;86.20;;;;;;4976129;28;20144;-72
2023/05/07 12:00:23;;;;;;;6.07;5.18;;;31.10;85.80;;;;;;4991653;28;20043;-70
2023/05/07 12:02:50;;;;;;;6.30;5.70;;;31.80;85.60;;;;;;4983916;28;20061;-70
2023/05/07 12:05:18;;;;;;;5.60;5.10;;;32.00;84.40;;;;;;4988637;28;20066;-71
2023/05/07 12:07:46;;;;;;;5.85;5.35;;;31.80;82.10;;;;;;4993549;28;20129;-70
2023/05/07 12:10:13;;;;;;;5.70;5.20;;;31.20;81.70;;;;;;4991765;28;20522;-70
2023/05/07 12:12:44;;;;;;;6.05;5.45;;;30.10;83.00;;;;;;4991816;28;20053;-71
2023/05/07 12:15:16;;;;;;;6.47;5.20;;;29.70;85.10;;;;;;4991765;28;20602;-70
2023/05/07 12:17:44;;;;;;;5.72;5.22;;;29.50;85.50;;;;;;4992259;28;20516;-71
2023/05/07 12:20:12;;;;;;;6.88;5.47;;;29.20;86.40;;;;;;4993297;28;20038;-71
2023/05/07 12:22:41;;;;;;;5.95;5.38;;;29.20;87.40;;;;;;4989882;28;20057;-71
2023/05/07 12:25:10;;;;;;;6.68;5.93;;;29.10;88.00;;;;;;4967796;28;20140;-71
2023/05/07 12:27:40;;;;;;;6.43;5.72;;;28.80;88.60;;;;;;4990068;28;20050;-71
2023/05/07 12:30:10;;;;;;;6.28;5.68;;;28.70;89.60;;;;;;4974901;28;20156;-71
2023/05/07 12:32:37;;;;;;;9.25;6.32;;;29.20;88.80;;;;;;4990901;28;20253;-71
2023/05/07 12:35:06;;;;;;;6.35;5.75;;;29.50;87.90;;;;;;5006876;28;20034;-70
2023/05/07 12:37:36;;;;;;;8.15;5.90;;;29.00;88.60;;;;;;4993360;28;20134;-71
2023/05/07 12:40:09;;;;;;;7.28;6.28;;;28.20;89.50;;;;;;4991699;28;20042;-71
2023/05/07 12:42:37;;;;;;;7.00;6.40;;;27.90;90.50;;;;;;4971919;28;20046;-71
2023/05/07 12:45:13;;;;;;;7.05;6.35;;;27.40;90.80;;;;;;4988626;28;20046;-70
2023/05/07 12:47:47;;;;;;;7.07;6.32;;;27.20;91.20;;;;;;4977411;28;20081;-70
2023/05/07 12:50:15;;;;;;;6.78;5.93;;;27.00;91.60;;;;;;4966666;28;20042;-71
2023/05/07 12:52:48;;;;;;;8.27;6.20;;;26.80;91.60;;;;;;4973983;28;20076;-70
2023/05/07 12:55:16;;;;;;;6.57;5.97;;;26.70;92.00;;;;;;4991472;28;20213;-69
2023/05/07 12:57:48;;;;;;;7.07;6.38;;;26.90;91.90;;;;;;5000595;28;20057;-71
2023/05/07 13:00:16;;;;;;;7.45;6.47;;;26.90;92.30;;;;;;4991195;28;20038;-71